Latest Weather Observations for Tarcoola

IDS60801

Issued at 6:35 pm CST Wednesday 17 September 2014 (issued every 30 minutes, with the page automatically refreshed every 10 minutes)

About weather observations | Map of weather stations | Latest weather observations for SA | Other Formats
Station Details ID: 016098 Name: TARCOOLA AERO Lat: -30.71 Lon: 134.58 Height: 123.0 m
Data from the previous 72 hours. | See also: Recent months at Tarcoola
Date/Time
CST
Temp
°C
App
Temp
°C
Dew
Point
Rel
Hum
%
Delta-T
°C
Wind Press
QNH
hPa
Press
MSL
hPa
Rain
since 9 am
mm
Dir
 
Spd
km/h
Gust
km/h
Spd
kts
Gust
kts
17/06:30pm 19.0 15.0 -2.0 24 8.8 ESE 9 13 5 7 1022.6 1022.4 0.0
17/06:00pm 20.1 15.7 -2.3 22 9.5 ESE 11 17 6 9 1022.6 1022.4 0.0
17/05:30pm 20.8 17.2 -2.3 21 9.8 ESE 7 11 4 6 1022.4 1022.2 0.0
17/05:00pm 21.0 17.1 -1.5 22 9.8 SE 9 19 5 10 1022.0 1021.8 0.0
17/04:30pm 21.4 16.3 -1.8 21 10.0 ESE 15 24 8 13 1021.8 1021.6 0.0
17/04:00pm 21.3 18.1 -0.6 23 9.7 ESE 6 19 3 10 1021.7 1021.5 0.0
17/03:30pm 21.2 16.6 -0.7 23 9.7 SSE 13 20 7 11 1021.8 1021.6 0.0
17/03:00pm 20.9 15.7 0.2 25 9.3 E 17 30 9 16 1022.0 1021.8 0.0
17/02:30pm 20.7 17.0 0.0 25 9.2 ENE 9 17 5 9 1022.3 1022.1 0.0
17/02:00pm 20.1 16.4 0.0 26 8.9 NE 9 15 5 8 1022.7 1022.5 0.0
17/01:30pm 19.6 15.3 1.1 29 8.3 E 13 20 7 11 1022.9 1022.7 0.0
17/01:00pm 19.1 15.7 1.6 31 8.0 SSE 9 22 5 12 1023.3 1023.1 0.0
17/12:30pm 19.0 14.1 2.0 32 7.8 ESE 17 26 9 14 1023.6 1023.4 0.0
17/12:00pm 18.2 13.4 2.5 35 7.2 ESE 17 22 9 12 1023.9 1023.7 0.0
17/11:30am 16.5 11.3 2.5 39 6.3 SE 19 26 10 14 1024.4 1024.2 0.0
17/11:00am 17.1 11.9 2.7 38 6.6 SSE 19 24 10 13 1024.6 1024.4 0.0
17/10:30am 16.3 11.3 3.7 43 5.8 ESE 19 32 10 17 1025.0 1024.8 0.0
17/10:00am 15.9 11.0 4.3 46 5.4 ESE 19 26 10 14 1025.4 1025.2 0.0
17/09:30am 14.5 10.1 4.5 51 4.6 SSE 17 24 9 13 1025.3 1025.1 0.0
17/09:00am 13.8 8.8 4.4 53 4.3 SE 20 30 11 16 1025.3 1025.1 0.0
17/08:30am 13.4 8.8 3.8 52 4.3 SE 17 26 9 14 1025.0 1024.8 0.0
17/08:00am 12.4 7.7 5.3 62 3.3 SE 19 20 10 11 1024.5 1024.3 0.0
17/07:30am 9.0 8.1 6.1 82 1.3 CALM 0 0 0 0 1024.3 1024.1 0.0
17/07:00am 4.6 2.7 2.8 88 0.7 SSW 2 6 1 3 1023.8 1023.6 0.0
17/06:30am 4.2 1.3 2.7 90 0.6 S 7 9 4 5 1023.6 1023.4 0.0
17/06:00am 4.6 2.3 2.9 89 0.7 SW 4 6 2 3 1023.3 1023.1 0.0
17/05:30am 5.4 2.9 3.7 89 0.7 SW 6 6 3 3 1022.9 1022.7 0.0
17/05:00am 6.2 3.8 4.5 89 0.7 SW 6 6 3 3 1022.6 1022.4 0.0
17/04:30am 6.7 3.8 4.9 88 0.8 SSW 9 11 5 6 1022.3 1022.1 0.0
17/04:00am 7.6 4.5 5.7 88 0.9 SSW 11 11 6 6 1022.1 1021.9 0.0
17/03:30am 6.9 3.2 4.6 85 1.0 SW 13 13 7 7 1022.1 1021.9 0.0
17/03:00am 7.9 5.6 4.7 80 1.4 W 6 7 3 4 1022.0 1021.8 0.0
17/02:30am 8.9 6.2 5.8 81 1.4 SSW 9 11 5 6 1021.9 1021.7 0.0
17/02:00am 9.4 6.8 5.9 79 1.6 SSW 9 11 5 6 1021.9 1021.7 0.0
17/01:30am 10.5 8.0 6.5 76 1.9 SSW 9 11 5 6 1022.1 1021.9 0.0
17/01:00am 11.1 8.2 6.5 73 2.2 SSW 11 13 6 7 1022.1 1021.9 0.0
17/12:30am 11.6 8.7 6.5 71 2.4 SW 11 13 6 7 1022.3 1022.1 0.0
17/12:00am 12.6 9.5 7.1 69 2.7 SSW 13 17 7 9 1022.5 1022.3 0.0
 
Date/Time
CST
Temp
°C
App
Temp
°C
Dew
Point
Rel
Hum
%
Delta-T
°C
Wind Press
QNH
hPa
Press
MSL
hPa
Rain
since 9 am
mm
Dir
 
Spd
km/h
Gust
km/h
Spd
kts
Gust
kts
16/11:30pm 13.3 9.1 7.3 67 2.9 SSW 19 28 10 15 1022.7 1022.5 0.0
16/11:00pm 13.6 9.3 6.9 64 3.3 SSW 19 28 10 15 1022.6 1022.4 0.0
16/10:30pm 14.2 8.9 6.8 61 3.6 SSW 24 35 13 19 1022.4 1022.2 0.0
16/10:00pm 14.8 8.7 6.4 57 4.1 SSW 28 37 15 20 1022.0 1021.8 0.0
16/09:30pm 15.6 9.1 4.6 48 5.2 S 28 39 15 21 1021.9 1021.7 0.0
16/09:00pm 16.3 10.2 3.0 41 6.1 SSW 24 35 13 19 1021.4 1021.2 0.0
16/08:30pm 17.1 10.4 1.5 35 6.9 SSW 26 39 14 21 1021.2 1021.0 0.0
16/08:07pm 17.5 9.9 0.6 32 7.4 SSW 30 39 16 21 1020.8 1020.6 0.0
16/08:00pm 15.9 12.0 -1.6 30 7.2 SW 9 11 5 6 1020.7 1020.5 0.0
16/07:30pm 17.4 13.1 -1.3 28 7.9 SW 11 13 6 7 1020.1 1019.9 0.0
16/07:00pm 18.9 14.3 -1.0 26 8.6 SSW 13 19 7 10 1019.4 1019.2 0.0
16/06:30pm 19.8 14.5 -0.8 25 9.0 SW 17 22 9 12 1019.2 1019.0 0.0
16/06:00pm 20.8 15.1 -1.1 23 9.6 WSW 19 28 10 15 1019.0 1018.8 0.0
16/05:30pm 21.4 16.4 -1.2 22 9.9 SSW 15 20 8 11 1018.8 1018.6 0.0
16/05:00pm 21.9 16.0 -2.0 20 10.4 WSW 19 28 10 15 1018.7 1018.5 0.0
16/04:30pm 22.5 17.6 -3.0 18 10.9 WSW 13 20 7 11 1018.5 1018.3 0.0
16/04:00pm 22.0 15.5 -2.7 19 10.6 W 22 39 12 21 1018.6 1018.4 0.0
16/03:30pm 22.1 16.0 -2.6 19 10.6 WSW 20 33 11 18 1018.5 1018.3 0.0
16/03:00pm 22.3 17.3 -1.1 21 10.4 WSW 15 35 8 19 1018.5 1018.3 0.0
16/02:30pm 21.1 16.4 0.9 26 9.2 WSW 15 28 8 15 1018.6 1018.4 0.0
16/02:00pm 20.6 16.2 0.4 26 9.1 SSW 13 17 7 9 1019.1 1018.9 0.0
16/01:30pm 19.8 16.2 0.3 27 8.7 S 9 15 5 8 1019.5 1019.3 0.0
16/01:00pm 20.3 15.9 0.2 26 9.0 W 13 26 7 14 1020.2 1020.0 0.0
16/12:30pm 19.4 15.2 1.9 31 8.0 SW 13 19 7 10 1020.8 1020.6 0.0
16/12:00pm 18.8 14.8 2.6 34 7.5 WSW 13 30 7 16 1021.3 1021.1 0.0
16/11:30am 17.6 14.6 4.2 41 6.3 SSW 9 20 5 11 1021.9 1021.7 0.0
16/11:00am 17.3 14.3 3.9 41 6.3 S 9 17 5 9 1022.4 1022.2 0.0
16/10:30am 16.9 13.8 7.3 53 4.8 SW 13 20 7 11 1022.7 1022.5 0.0
16/10:00am 16.0 12.7 8.0 59 4.1 S 15 24 8 13 1022.8 1022.6 0.0
16/09:30am 15.0 11.8 8.3 64 3.4 S 15 24 8 13 1023.1 1022.9 0.0
16/09:00am 14.2 11.7 8.4 68 2.9 S 11 20 6 11 1023.0 1022.8 0.0
16/08:30am 12.9 11.3 8.8 76 2.1 SW 7 11 4 6 1023.0 1022.8 0.0
16/08:00am 10.9 9.3 7.8 81 1.5 WSW 6 9 3 5 1022.8 1022.6 0.0
16/07:30am 8.4 7.6 6.5 88 0.9 CALM 0 0 0 0 1022.3 1022.1 0.0
16/07:00am 5.6 2.5 3.8 88 0.8 SSE 9 13 5 7 1021.8 1021.6 0.0
16/06:30am 4.3 2.5 1.5 82 1.1 CALM 0 0 0 0 1021.7 1021.5 0.0
16/06:00am 4.9 3.0 2.8 86 0.9 WSW 2 6 1 3 1021.6 1021.4 0.0
16/05:30am 5.5 2.4 3.7 88 0.8 WSW 9 9 5 5 1021.4 1021.2 0.0
16/05:00am 5.9 4.6 3.9 87 0.9 CALM 0 0 0 0 1021.2 1021.0 0.0
16/04:30am 5.4 2.7 2.4 81 1.2 SSW 6 7 3 4 1020.8 1020.6 0.0
16/04:00am 6.2 4.7 3.2 81 1.3 CALM 0 0 0 0 1020.9 1020.7 0.0
16/03:30am 6.4 3.8 3.2 80 1.3 SW 6 6 3 3 1020.9 1020.7 0.0
16/03:00am 6.8 4.1 3.9 82 1.2 SW 7 7 4 4 1020.8 1020.6 0.0
16/02:30am 8.0 5.9 5.6 85 1.1 S 6 7 3 4 1021.1 1020.9 0.0
16/02:00am 8.9 7.9 5.6 80 1.5 CALM 0 0 0 0 1021.5 1021.3 0.0
16/01:30am 10.1 8.0 6.6 79 1.6 SSW 7 9 4 5 1021.5 1021.3 0.0
16/01:00am 11.1 8.4 7.2 77 1.9 SSW 11 13 6 7 1021.7 1021.5 0.0
16/12:30am 11.9 8.8 7.4 74 2.2 SSW 13 17 7 9 1021.9 1021.7 0.0
16/12:00am 12.5 9.4 7.4 71 2.5 SSW 13 17 7 9 1021.8 1021.6 0.0
 
Date/Time
CST
Temp
°C
App
Temp
°C
Dew
Point
Rel
Hum
%
Delta-T
°C
Wind Press
QNH
hPa
Press
MSL
hPa
Rain
since 9 am
mm
Dir
 
Spd
km/h
Gust
km/h
Spd
kts
Gust
kts
15/11:30pm 13.2 9.3 7.2 67 2.9 SSW 17 26 9 14 1021.7 1021.5 0.0
15/11:00pm 13.8 9.3 7.1 64 3.3 S 20 30 11 16 1021.5 1021.3 0.0
15/10:30pm 14.3 9.8 6.9 61 3.6 SSW 20 30 11 16 1021.8 1021.6 0.0
15/10:00pm 14.9 10.4 7.0 59 3.9 S 20 28 11 15 1021.5 1021.3 0.0
15/09:30pm 15.4 11.5 7.2 58 4.1 S 17 22 9 12 1021.2 1021.0 0.0
15/09:00pm 16.3 11.9 7.3 55 4.5 SSW 20 30 11 16 1021.0 1020.8 0.0
15/08:30pm 17.0 12.5 7.1 52 4.9 SSW 20 24 11 13 1021.0 1020.8 0.0
15/08:00pm 17.7 13.1 6.6 48 5.5 SSW 20 30 11 16 1020.6 1020.4 0.0
15/07:30pm 18.5 13.3 5.7 43 6.3 SSW 22 30 12 16 1020.1 1019.9 0.0
15/07:00pm 19.2 14.3 4.9 39 7.0 SSW 20 32 11 17 1019.7 1019.5 0.0
15/06:30pm 20.0 14.7 4.9 37 7.4 SSW 22 32 12 17 1019.3 1019.1 0.0
15/06:00pm 20.9 15.1 4.5 34 8.0 SSW 24 35 13 19 1018.8 1018.6 0.0
15/05:30pm 21.8 15.9 3.9 31 8.7 SSW 24 39 13 21 1018.5 1018.3 0.0
15/05:00pm 22.8 16.5 3.9 29 9.3 SW 26 35 14 19 1018.3 1018.1 0.0
15/04:30pm 23.2 17.4 4.2 29 9.4 SSW 24 32 13 17 1018.1 1017.9 0.0
15/04:00pm 23.5 16.9 4.0 28 9.6 SW 28 41 15 22 1017.9 1017.7 0.0
15/03:30pm 23.7 17.2 4.6 29 9.5 SSW 28 41 15 22 1018.1 1017.9 0.0
15/03:00pm 24.0 17.8 4.4 28 9.8 SSW 26 43 14 23 1018.2 1018.0 0.0
15/02:30pm 24.7 18.7 5.5 29 9.8 SSW 26 39 14 21 1018.3 1018.1 0.0
15/02:00pm 23.5 17.8 4.9 30 9.3 SW 24 37 13 20 1018.4 1018.2 0.0
15/01:30pm 22.8 16.8 5.3 32 8.8 SSW 26 35 14 19 1018.8 1018.6 0.0
15/01:00pm 22.8 16.9 5.7 33 8.7 SW 26 35 14 19 1019.2 1019.0 0.0
15/12:30pm 21.8 15.6 6.1 36 7.9 SSW 28 39 15 21 1019.4 1019.2 0.0
15/12:00pm 21.6 16.4 7.4 40 7.4 SW 24 35 13 19 1019.7 1019.5 0.0
15/11:30am 21.9 16.8 7.7 40 7.4 SW 24 37 13 20 1020.1 1019.9 0.0
15/11:00am 19.8 14.4 8.2 47 6.0 SW 26 35 14 19 1020.2 1020.0 0.0
15/10:30am 19.2 14.8 8.8 51 5.4 SSW 22 30 12 16 1020.3 1020.2 0.0
15/10:00am 18.2 12.6 8.7 54 4.9 SSW 28 44 15 24 1020.5 1020.3 0.0
15/09:30am 18.0 12.2 9.4 57 4.5 SSW 30 37 16 20 1020.5 1020.3 0.0
15/09:00am 17.0 11.2 9.4 61 4.0 SSW 30 43 16 23 1020.3 1020.2 0.0
15/08:30am 15.9 10.5 9.6 66 3.3 SSW 28 43 15 23 1020.2 1020.0 0.0
15/08:00am 15.4 11.1 9.3 67 3.2 SW 22 30 12 16 1019.9 1019.7 0.0
15/07:30am 14.6 11.2 9.2 70 2.8 SW 17 24 9 13 1019.6 1019.4 0.0
15/07:00am 14.0 10.0 9.0 72 2.6 SW 20 26 11 14 1019.2 1019.0 0.0
15/06:30am 14.5 9.8 9.1 70 2.8 SW 24 39 13 21 1018.8 1018.6 0.0
15/06:00am 14.7 9.6 9.3 70 2.8 SW 26 37 14 20 1018.7 1018.5 0.0
15/05:30am 14.7 10.7 9.1 69 2.9 SW 20 28 11 15 1018.3 1018.1 0.0
15/05:00am 14.7 9.9 8.9 68 3.0 WSW 24 32 13 17 1018.0 1017.8 0.0
15/04:30am 14.8 10.7 8.5 66 3.2 WSW 20 30 11 16 1017.9 1017.7 0.0
15/04:00am 14.6 10.5 8.5 67 3.1 WSW 20 28 11 15 1017.4 1017.2 0.0
15/03:30am 14.7 9.4 8.6 67 3.1 SW 26 41 14 22 1017.3 1017.1 0.0
15/03:00am 14.9 9.4 9.3 69 2.9 SW 28 37 15 20 1017.3 1017.1 0.0
15/02:30am 14.5 9.4 9.3 71 2.7 WSW 26 37 14 20 1017.2 1017.0 0.0
15/02:00am 14.2 9.9 9.4 73 2.5 WSW 22 32 12 17 1017.4 1017.2 0.0
15/01:30am 13.8 9.4 9.0 73 2.4 WSW 22 32 12 17 1017.6 1017.4 0.0
15/01:00am 14.0 9.5 8.4 69 2.8 WSW 22 28 12 15 1017.7 1017.5 0.0
15/12:30am 14.4 10.2 8.1 66 3.2 WSW 20 26 11 14 1017.8 1017.6 0.0
15/12:00am 14.9 9.1 7.9 63 3.5 WSW 28 39 15 21 1017.6 1017.4 0.0
 
Date/Time
CST
Temp
°C
App
Temp
°C
Dew
Point
Rel
Hum
%
Delta-T
°C
Wind Press
QNH
hPa
Press
MSL
hPa
Rain
since 9 am
mm
Dir
 
Spd
km/h
Gust
km/h
Spd
kts
Gust
kts
14/11:30pm 15.3 9.4 7.3 59 4.0 WSW 28 39 15 21 1017.8 1017.6 0.0
14/11:00pm 15.9 9.9 6.9 55 4.5 WSW 28 41 15 22 1017.7 1017.5 0.0
14/10:30pm 16.5 10.7 6.1 50 5.1 SW 26 37 14 20 1017.8 1017.6 0.0
14/10:00pm 17.3 10.2 5.6 46 5.7 WSW 32 46 17 25 1017.7 1017.5 0.0
14/09:36pm 18.0 10.8 5.2 43 6.2 SW 32 50 17 27 1017.5 1017.3 0.0
14/09:30pm 18.1 10.3 5.0 42 6.3 SW 35 50 19 27 1017.5 1017.3 0.0
14/09:10pm 19.0 12.6 5.1 40 6.8 SW 28 46 15 25 1017.2 1017.0 0.0
14/09:00pm 19.4 11.9 4.3 37 7.3 SW 33 46 18 25 1017.1 1016.9 0.0
14/08:30pm 20.4 13.5 6.4 40 7.1 SSW 32 43 17 23 1016.6 1016.4 0.0
14/08:00pm 23.2 15.4 2.7 26 9.8 SW 33 44 18 24 1015.7 1015.5 0.0
14/07:30pm 24.7 18.2 4.5 27 10.1 SW 28 37 15 20 1014.9 1014.7 0.0
14/07:00pm 26.6 20.7 3.8 23 11.4 WSW 24 33 13 18 1014.2 1014.0 0.0

Other Formats:

Comma delimited format used in spreadsheet applications
http://www.bom.gov.au/fwo/IDS60801/IDS60801.94655.axf

JavaScript Object Notation format (JSON) in row-major order
http://www.bom.gov.au/fwo/IDS60801/IDS60801.94655.json